Time;durP1;ratioP1;P1;durP2;ratioP2;P2;SDS_P1;SDS_P2;PMS_P1;PMS_P2;Temp;Humidity;BMP_temperature;BMP_pressure;BME280_temperature;BME280_humidity;BME280_pressure;Samples;Min_cycle;Max_cycle;Signal;HPM_P1;HPM_P2
2022/11/26 00:02:20;;;;;;;8.27;4.63;;;4.00;99.90;;;4.82;100.00;99127.44;4971378;28;20491;-81
2022/11/26 00:04:51;;;;;;;13.70;4.33;;;3.90;99.90;;;4.90;100.00;99129.41;4972639;28;20515;-81
2022/11/26 00:07:25;;;;;;;15.50;4.07;;;4.00;99.90;;;4.93;100.00;99129.13;4972160;28;20906;-81
2022/11/26 00:09:55;;;;;;;19.00;4.60;;;4.10;99.90;;;4.98;100.00;99137.38;4978492;28;20521;-81
2022/11/26 00:12:28;;;;;;;12.43;5.17;;;4.20;99.90;;;4.98;100.00;99142.56;4976010;28;20599;-81
2022/11/26 00:14:58;;;;;;;8.20;4.83;;;4.10;99.90;;;4.88;100.00;99141.66;4977002;28;20482;-81
2022/11/26 00:17:28;;;;;;;5.00;3.73;;;4.00;99.90;;;4.91;100.00;99154.38;4977322;28;20479;-81
2022/11/26 00:19:58;;;;;;;9.03;4.27;;;4.00;99.90;;;4.89;100.00;99153.69;4977503;28;20548;-81
2022/11/26 00:22:31;;;;;;;12.17;4.93;;;4.00;99.90;;;4.86;100.00;99159.13;4974682;28;20501;-81
2022/11/26 00:25:01;;;;;;;20.33;4.33;;;4.00;99.90;;;4.88;100.00;99154.63;4975663;28;20513;-80
2022/11/26 00:27:32;;;;;;;12.60;4.20;;;4.00;99.90;;;4.83;100.00;99164.53;4979050;28;20558;-80
2022/11/26 00:30:01;;;;;;;11.43;4.23;;;3.90;99.90;;;4.83;100.00;99165.34;4973689;28;20458;-81
2022/11/26 00:32:31;;;;;;;15.33;4.10;;;3.90;99.90;;;4.81;100.00;99167.25;4974327;28;20514;-81
2022/11/26 00:35:01;;;;;;;12.97;4.50;;;3.90;99.90;;;4.84;100.00;99169.59;4975421;28;20489;-81
2022/11/26 00:37:40;;;;;;;6.50;3.70;;;4.00;99.90;;;4.90;100.00;99181.22;4971885;28;20463;-81
2022/11/26 00:40:23;;;;;;;13.90;4.00;;;4.00;99.90;;;4.94;100.00;99187.81;4972033;28;20470;-81
2022/11/26 00:42:55;;;;;;;15.37;4.80;;;4.00;99.90;;;4.98;100.00;99199.56;4976432;28;20889;-81
2022/11/26 00:45:32;;;;;;;11.30;4.40;;;4.20;99.90;;;5.02;100.00;99200.97;4969937;28;20521;-81
2022/11/26 00:48:01;;;;;;;9.30;3.90;;;4.20;99.90;;;5.07;100.00;99188.47;4971635;28;20478;-81
2022/11/26 00:50:38;;;;;;;12.67;4.20;;;4.30;99.90;;;5.11;100.00;99195.03;4974578;28;20976;-81
2022/11/26 00:53:12;;;;;;;12.30;5.20;;;4.40;99.90;;;5.15;100.00;99196.44;4975096;28;20544;-81
2022/11/26 00:55:46;;;;;;;9.73;4.67;;;4.40;99.90;;;5.18;100.00;99203.97;4973001;28;20471;-81
2022/11/26 00:58:25;;;;;;;14.00;5.63;;;4.50;99.90;;;5.20;100.00;99204.69;4969763;28;20539;-81
2022/11/26 01:00:54;;;;;;;16.00;6.13;;;4.50;99.90;;;5.23;100.00;99207.03;4972516;28;20495;-80
2022/11/26 01:03:24;;;;;;;19.93;5.77;;;4.50;99.90;;;5.26;100.00;99208.53;4974348;28;20491;-81
2022/11/26 01:05:58;;;;;;;12.23;4.70;;;4.60;99.90;;;5.28;100.00;99217.84;4972674;28;20546;-81
2022/11/26 01:08:32;;;;;;;17.87;5.67;;;4.60;99.90;;;5.29;100.00;99219.47;4976292;28;20546;-81
2022/11/26 01:11:04;;;;;;;10.37;4.60;;;4.60;99.90;;;5.32;100.00;99228.78;4971442;28;20464;-81
2022/11/26 01:13:35;;;;;;;8.67;4.53;;;4.60;99.90;;;5.35;100.00;99233.72;4973159;28;20467;-81
2022/11/26 01:16:20;;;;;;;8.67;5.17;;;4.60;99.90;;;5.33;100.00;99231.25;4972776;28;21049;-81
2022/11/26 01:18:54;;;;;;;16.67;6.27;;;4.60;99.90;;;5.34;100.00;99242.47;4974280;28;20463;-81
2022/11/26 01:21:25;;;;;;;24.10;5.70;;;4.50;99.90;;;5.36;100.00;99241.38;4971473;28;20465;-81
2022/11/26 01:23:55;;;;;;;17.53;5.97;;;4.60;99.90;;;5.34;100.00;99245.88;4971391;28;20453;-82
2022/11/26 01:26:32;;;;;;;15.83;5.27;;;4.50;99.90;;;5.37;100.00;99248.22;4968021;28;21021;-81
2022/11/26 01:29:04;;;;;;;19.43;6.00;;;4.60;99.90;;;5.41;100.00;99249.63;4971677;28;20512;-81
2022/11/26 01:31:34;;;;;;;10.70;5.00;;;4.60;99.90;;;5.45;100.00;99245.81;4971671;28;21465;-81
2022/11/26 01:34:04;;;;;;;18.93;5.97;;;4.70;99.90;;;5.46;100.00;99251.81;4974158;28;20550;-80
2022/11/26 01:36:36;;;;;;;13.83;6.00;;;4.70;99.90;;;5.50;100.00;99250.63;4969907;28;20482;-81
2022/11/26 01:39:15;;;;;;;9.63;5.07;;;4.70;99.90;;;5.50;100.00;99250.63;4972284;28;20820;-81
2022/11/26 01:41:52;;;;;;;17.57;6.00;;;4.70;99.90;;;5.52;100.00;99256.50;4971855;28;20482;-80
2022/11/26 01:44:26;;;;;;;16.03;5.60;;;4.70;99.90;;;5.54;100.00;99254.63;4971843;28;20559;-81
2022/11/26 01:46:58;;;;;;;18.90;6.10;;;4.70;99.90;;;5.55;100.00;99256.28;4967828;28;21380;-81
2022/11/26 01:49:30;;;;;;;14.40;6.27;;;4.70;99.90;;;5.54;100.00;99265.81;4974878;28;20496;-81
2022/11/26 01:52:07;;;;;;;13.50;5.13;;;4.70;99.90;;;5.55;100.00;99264.84;4970278;28;21000;-81
2022/11/26 01:54:40;;;;;;;11.13;5.50;;;4.70;99.90;;;5.58;100.00;99277.59;4973996;28;20555;-81
2022/11/26 01:57:15;;;;;;;11.00;4.93;;;4.80;99.90;;;5.61;100.00;99270.50;4975098;28;20543;-81
2022/11/26 01:59:51;;;;;;;12.40;5.47;;;4.80;99.90;;;5.62;100.00;99273.00;4974755;28;21001;-81
2022/11/26 02:02:22;;;;;;;11.53;5.00;;;4.90;99.90;;;5.61;100.00;99267.91;4969520;28;20517;-80
2022/11/26 02:05:04;;;;;;;9.13;4.30;;;4.80;99.90;;;5.61;100.00;99271.34;4971175;28;20491;-81
2022/11/26 02:07:32;;;;;;;14.80;5.50;;;4.80;99.90;;;5.60;100.00;99274.88;4971539;28;20546;-81
2022/11/26 02:10:02;;;;;;;12.97;5.40;;;4.80;99.90;;;5.57;100.00;99278.53;4971522;28;20464;-81
2022/11/26 02:12:32;;;;;;;13.00;4.77;;;4.80;99.90;;;5.54;100.00;99281.41;4974949;28;20975;-81
2022/11/26 02:15:03;;;;;;;11.70;4.50;;;4.70;99.90;;;5.52;100.00;99283.28;4974192;28;20892;-81
2022/11/26 02:17:39;;;;;;;11.83;5.27;;;4.70;99.90;;;5.50;100.00;99276.56;4973418;28;20472;-81
2022/11/26 02:20:35;;;;;;;8.47;3.90;;;4.60;99.90;;;5.47;100.00;99284.59;4971670;28;20480;-81
2022/11/26 02:24:12;;;;;;;13.97;4.40;;;4.60;99.90;;;5.46;100.00;99294.16;4971194;28;20477;-81
2022/11/26 02:27:33;;;;;;;10.23;4.03;;;4.60;99.90;;;5.44;100.00;99280.50;4969599;28;20467;-81
2022/11/26 02:30:10;;;;;;;9.03;4.00;;;4.70;99.90;;;5.42;100.00;99281.53;4968744;28;20471;-81
2022/11/26 02:32:57;;;;;;;8.90;3.47;;;4.60;99.90;;;5.36;100.00;99282.88;4972950;28;20543;-81
2022/11/26 02:35:36;;;;;;;10.73;3.80;;;4.60;99.90;;;5.39;100.00;99277.44;4969147;28;20468;-81
2022/11/26 02:38:11;;;;;;;12.63;4.87;;;4.60;99.90;;;5.41;100.00;99285.94;4968464;28;20528;-81
2022/11/26 02:40:41;;;;;;;7.00;4.17;;;4.70;99.90;;;5.42;100.00;99284.13;4970777;28;20878;-81
2022/11/26 02:43:09;;;;;;;7.30;4.00;;;4.60;99.90;;;5.42;100.00;99287.56;4972209;28;20845;-81
2022/11/26 02:45:43;;;;;;;8.97;3.97;;;4.70;99.90;;;5.41;100.00;99285.09;4970958;28;20471;-81
2022/11/26 02:48:22;;;;;;;8.00;4.33;;;4.60;99.90;;;5.34;100.00;99277.00;4971044;28;20543;-81
2022/11/26 02:50:58;;;;;;;10.50;3.70;;;4.60;99.90;;;5.36;100.00;99277.69;4970678;28;20467;-81
2022/11/26 02:53:38;;;;;;;7.63;4.13;;;4.50;99.90;;;5.37;100.00;99268.97;4967514;28;20491;-80
2022/11/26 02:56:15;;;;;;;10.80;4.30;;;4.60;99.90;;;5.34;100.00;99271.81;4969011;28;20895;-81
2022/11/26 02:58:45;;;;;;;9.93;4.40;;;4.50;99.90;;;5.33;100.00;99267.56;4967899;28;20476;-81
2022/11/26 03:01:27;;;;;;;8.77;3.90;;;4.50;99.90;;;5.35;100.00;99264.81;4967781;28;20468;-81
2022/11/26 03:04:06;;;;;;;5.57;4.33;;;4.60;99.90;;;5.35;100.00;99270.84;4971712;28;20531;-81
2022/11/26 03:06:36;;;;;;;7.90;3.07;;;4.70;99.90;;;5.32;100.00;99260.72;4968587;28;20479;-81
2022/11/26 03:09:06;;;;;;;4.10;2.60;;;4.60;99.90;;;5.25;100.00;99269.94;4969993;28;20867;-81
2022/11/26 03:11:36;;;;;;;3.70;1.90;;;4.40;99.90;;;5.24;100.00;99262.31;4967684;28;20473;-81
2022/11/26 03:14:05;;;;;;;7.13;2.80;;;4.40;99.90;;;5.20;100.00;99258.31;4974262;28;20503;-81
2022/11/26 03:16:36;;;;;;;3.07;2.10;;;4.30;99.90;;;5.18;100.00;99263.59;4970455;28;21679;-81
2022/11/26 03:19:06;;;;;;;16.60;3.20;;;4.30;99.90;;;5.14;100.00;99259.59;4972521;28;20536;-81
2022/11/26 03:21:36;;;;;;;7.17;3.23;;;4.30;99.90;;;5.13;100.00;99265.75;4968820;28;20506;-81
2022/11/26 03:24:06;;;;;;;5.83;2.70;;;4.20;99.90;;;5.07;100.00;99261.03;4970157;28;20481;-81
2022/11/26 03:26:36;;;;;;;7.97;3.60;;;4.20;99.90;;;5.07;100.00;99261.03;4973396;28;21249;-81
2022/11/26 03:29:05;;;;;;;10.60;3.43;;;4.20;99.90;;;5.04;100.00;99262.09;4972542;28;20472;-80
2022/11/26 03:31:36;;;;;;;8.60;3.83;;;4.20;99.90;;;4.99;100.00;99266.03;4971100;28;20503;-81
2022/11/26 03:34:07;;;;;;;7.67;2.80;;;4.10;99.90;;;4.92;100.00;99259.69;4969855;28;20506;-81
2022/11/26 03:36:37;;;;;;;11.80;3.27;;;4.00;99.90;;;4.90;100.00;99274.50;4975272;28;20508;-81
2022/11/26 03:39:06;;;;;;;14.37;3.00;;;4.00;99.90;;;4.93;100.00;99271.66;4974257;28;20562;-81
2022/11/26 03:41:36;;;;;;;13.83;3.47;;;4.00;99.90;;;4.94;100.00;99270.72;4973643;28;20561;-80
2022/11/26 03:44:07;;;;;;;8.57;3.20;;;4.10;99.90;;;4.89;100.00;99273.72;4976060;28;20470;-81
2022/11/26 03:46:37;;;;;;;8.00;3.00;;;4.00;99.90;;;4.85;100.00;99279.25;4975346;28;23031;-81
2022/11/26 03:49:07;;;;;;;8.73;2.50;;;4.00;99.90;;;4.82;100.00;99282.91;4971176;28;20455;-81
2022/11/26 03:51:36;;;;;;;9.80;2.60;;;3.90;99.90;;;4.79;100.00;99280.53;4973788;28;20525;-81
2022/11/26 03:54:06;;;;;;;6.30;3.00;;;3.90;99.90;;;4.81;100.00;99280.44;4976608;28;20509;-81
2022/11/26 03:56:36;;;;;;;8.00;3.23;;;3.90;99.90;;;4.75;100.00;99279.16;4976673;28;20465;-81
2022/11/26 03:59:06;;;;;;;4.57;2.80;;;3.90;99.90;;;4.62;100.00;99280.22;4971478;28;20472;-82
2022/11/26 04:01:38;;;;;;;4.07;2.63;;;3.80;99.90;;;4.58;100.00;99275.25;4974129;28;20479;-81
2022/11/26 04:04:07;;;;;;;7.40;2.57;;;3.70;99.90;;;4.51;100.00;99268.91;4976447;28;20497;-81
2022/11/26 04:06:37;;;;;;;11.60;3.20;;;3.60;99.90;;;4.49;100.00;99273.38;4972687;28;20466;-81
2022/11/26 04:09:06;;;;;;;9.20;3.17;;;3.60;99.90;;;4.47;100.00;99272.69;4974884;28;20878;-81
2022/11/26 04:11:35;;;;;;;4.87;2.83;;;3.60;99.90;;;4.39;100.00;99281.97;4975563;28;20981;-81
2022/11/26 04:14:04;;;;;;;10.47;3.80;;;3.50;99.90;;;4.36;100.00;99288.22;4978088;28;20595;-81
2022/11/26 04:16:33;;;;;;;7.70;2.70;;;3.40;99.90;;;4.39;100.00;99289.75;4977056;28;20483;-81
2022/11/26 04:19:05;;;;;;;5.70;3.10;;;3.50;99.90;;;4.39;100.00;99300.94;4974559;28;20466;-81
2022/11/26 04:21:34;;;;;;;4.97;2.63;;;3.50;99.90;;;4.41;100.00;99309.41;4974824;28;20500;-81
2022/11/26 04:24:05;;;;;;;5.50;2.80;;;3.50;99.90;;;4.28;100.00;99311.28;4973316;28;20465;-80
2022/11/26 04:26:35;;;;;;;11.60;3.23;;;3.30;99.90;;;4.26;100.00;99314.94;4975935;28;20516;-81
2022/11/26 04:29:04;;;;;;;3.37;2.73;;;3.40;99.90;;;4.23;100.00;99321.16;4973204;28;20478;-80
2022/11/26 04:31:34;;;;;;;4.70;2.40;;;3.30;99.90;;;4.24;100.00;99319.38;4972850;28;20472;-80
2022/11/26 04:34:05;;;;;;;7.53;2.90;;;3.30;99.90;;;4.26;100.00;99326.13;4973516;28;20500;-81
2022/11/26 04:36:40;;;;;;;5.20;2.43;;;3.40;99.90;;;4.25;100.00;99342.56;4971004;28;20465;-81
2022/11/26 04:39:09;;;;;;;2.80;2.00;;;3.30;99.90;;;4.23;100.00;99354.81;4971669;28;20587;-81
2022/11/26 04:41:41;;;;;;;6.23;2.40;;;3.30;99.90;;;4.22;100.00;99357.50;4971401;28;20469;-80
2022/11/26 04:44:11;;;;;;;7.90;2.50;;;3.40;99.90;;;4.23;100.00;99352.22;4970534;28;20461;-80
2022/11/26 04:46:40;;;;;;;12.13;4.27;;;3.40;99.90;;;4.14;100.00;99352.91;4971120;28;20556;-82
2022/11/26 04:49:11;;;;;;;4.50;2.70;;;3.20;99.90;;;4.03;100.00;99351.09;4976359;28;20539;-80
2022/11/26 04:51:41;;;;;;;14.27;3.10;;;3.10;99.90;;;4.03;100.00;99358.03;4974703;28;20545;-81
2022/11/26 04:54:11;;;;;;;17.23;2.70;;;3.10;99.90;;;4.05;100.00;99367.38;4973396;28;20492;-80
2022/11/26 04:56:41;;;;;;;6.97;2.60;;;3.20;99.90;;;4.03;100.00;99371.81;4972665;28;20453;-81
2022/11/26 04:59:10;;;;;;;9.33;3.80;;;3.20;99.90;;;4.00;100.00;99379.81;4972815;28;20467;-81
2022/11/26 05:01:40;;;;;;;10.57;2.70;;;3.10;99.90;;;4.01;100.00;99383.22;4970247;28;20707;-80
2022/11/26 05:04:12;;;;;;;5.00;2.60;;;3.10;99.90;;;4.03;100.00;99383.91;4973474;28;20500;-81
2022/11/26 05:06:42;;;;;;;8.13;2.70;;;3.10;99.90;;;4.05;100.00;99395.00;4970786;28;20554;-81
2022/11/26 05:09:12;;;;;;;4.07;2.20;;;3.20;99.90;;;4.09;100.00;99399.03;4971909;28;20461;-81
2022/11/26 05:11:42;;;;;;;10.70;3.07;;;3.20;99.90;;;4.05;100.00;99410.53;4964011;28;20473;-81
2022/11/26 05:14:13;;;;;;;4.20;2.37;;;3.20;99.90;;;4.07;100.00;99413.81;4974326;28;20488;-81
2022/11/26 05:16:42;;;;;;;8.10;2.60;;;3.20;99.90;;;4.03;100.00;99409.78;4972614;28;20854;-80
2022/11/26 05:19:13;;;;;;;9.13;3.30;;;3.10;99.90;;;4.00;100.00;99416.03;4960518;28;20465;-80
2022/11/26 05:21:42;;;;;;;4.67;2.70;;;3.10;99.90;;;3.99;100.00;99413.56;4969473;28;20529;-81
2022/11/26 05:24:12;;;;;;;6.03;2.80;;;3.10;99.90;;;3.99;100.00;99408.41;4971341;28;20500;-80
2022/11/26 05:26:42;;;;;;;8.50;2.90;;;3.10;99.90;;;4.01;100.00;99414.28;4971187;28;20470;-81
2022/11/26 05:29:13;;;;;;;11.30;3.20;;;3.10;99.90;;;3.92;100.00;99414.94;4971634;28;20490;-81
2022/11/26 05:31:43;;;;;;;11.73;3.33;;;3.00;99.90;;;3.92;100.00;99423.50;4972049;28;20954;-81
2022/11/26 05:34:14;;;;;;;6.23;2.87;;;3.00;99.90;;;3.92;100.00;99433.88;4970689;28;20497;-81
2022/11/26 05:36:43;;;;;;;14.80;3.00;;;3.00;99.90;;;3.98;100.00;99435.19;4969343;28;20825;-81
2022/11/26 05:39:12;;;;;;;11.50;3.57;;;3.10;99.90;;;4.01;100.00;99434.97;4969915;28;20485;-81
2022/11/26 05:41:42;;;;;;;10.20;3.60;;;3.10;99.90;;;4.03;100.00;99427.91;4971428;28;20557;-81
2022/11/26 05:44:12;;;;;;;18.03;4.50;;;3.10;99.90;;;4.04;100.00;99421.81;4971801;28;20554;-80
2022/11/26 05:46:44;;;;;;;11.30;4.93;;;3.20;99.90;;;4.02;100.00;99426.28;4969130;28;20476;-81
2022/11/26 05:49:15;;;;;;;29.00;6.50;;;3.10;99.90;;;4.06;100.00;99432.88;4972621;28;20475;-81
2022/11/26 05:51:44;;;;;;;10.70;3.73;;;3.20;99.90;;;4.12;100.00;99427.25;4972056;28;20533;-80
2022/11/26 05:54:14;;;;;;;23.23;7.23;;;3.30;99.90;;;4.07;100.00;99426.75;4974137;28;20501;-80
2022/11/26 05:56:44;;;;;;;17.73;6.20;;;3.20;99.90;;;4.08;100.00;99431.00;4975385;28;20509;-81
2022/11/26 05:59:14;;;;;;;16.60;7.13;;;3.30;99.90;;;4.11;100.00;99435.94;4973736;28;21077;-81
2022/11/26 06:01:44;;;;;;;31.87;10.23;;;3.30;99.90;;;4.08;100.00;99436.19;4970883;28;20517;-80
2022/11/26 06:04:15;;;;;;;35.93;10.07;;;3.30;99.90;;;4.08;100.00;99436.19;4971613;28;20491;-81
2022/11/26 06:06:45;;;;;;;37.90;6.63;;;3.30;99.90;;;4.09;100.00;99432.66;4969750;28;20475;-80
2022/11/26 06:09:15;;;;;;;23.97;5.60;;;3.30;99.90;;;4.14;100.00;99443.50;4971753;28;21023;-81
2022/11/26 06:11:45;;;;;;;44.67;6.87;;;3.30;99.90;;;4.17;100.00;99445.03;4973650;28;20463;-80
2022/11/26 06:14:15;;;;;;;22.77;4.93;;;3.40;99.90;;;4.17;100.00;99445.84;4975567;28;20501;-81
2022/11/26 06:16:45;;;;;;;34.73;6.60;;;3.40;99.90;;;4.19;100.00;99441.41;4972217;28;20913;-81
2022/11/26 06:19:17;;;;;;;43.47;4.50;;;3.40;99.90;;;4.22;100.00;99443.75;4975030;28;20479;-81
2022/11/26 06:21:46;;;;;;;19.90;3.40;;;3.40;99.90;;;4.22;100.00;99442.94;4973492;28;21028;-81
2022/11/26 06:24:17;;;;;;;24.87;3.80;;;3.50;99.90;;;4.20;100.00;99440.44;4974663;28;20467;-82
2022/11/26 06:26:46;;;;;;;21.87;4.43;;;3.40;99.90;;;4.22;100.00;99443.75;4973169;28;21034;-81
2022/11/26 06:29:18;;;;;;;9.27;3.37;;;3.40;99.90;;;4.22;100.00;99443.75;4973295;28;20498;-81
2022/11/26 06:31:54;;;;;;;12.10;3.33;;;3.40;99.90;;;4.25;100.00;99437.53;4965674;28;20884;-81
2022/11/26 06:34:25;;;;;;;8.93;2.80;;;3.40;99.90;;;4.25;100.00;99435.75;4967877;28;20593;-81
2022/11/26 06:36:54;;;;;;;23.63;4.80;;;3.40;99.90;;;4.25;100.00;99443.53;4970932;28;20844;-81
2022/11/26 06:39:24;;;;;;;10.90;3.30;;;3.50;99.90;;;4.26;100.00;99450.38;4968118;28;20543;-81
2022/11/26 06:41:54;;;;;;;11.37;3.10;;;3.50;99.90;;;4.27;100.00;99457.19;4970157;28;20877;-76
2022/11/26 06:44:23;;;;;;;9.50;2.37;;;3.50;99.90;;;4.28;100.00;99451.06;4970457;28;20486;-81
2022/11/26 06:46:52;;;;;;;3.50;2.50;;;3.50;99.90;;;4.27;100.00;99461.56;4970127;28;20462;-81
2022/11/26 06:49:24;;;;;;;12.40;2.73;;;3.40;99.90;;;4.26;100.00;99460.72;4969707;28;20529;-81
2022/11/26 06:51:54;;;;;;;26.37;3.10;;;3.40;99.90;;;4.26;100.00;99465.91;4970645;28;20462;-80
2022/11/26 06:54:23;;;;;;;21.87;3.30;;;3.40;99.90;;;4.24;100.00;99464.34;4970799;28;20501;-79
2022/11/26 06:56:53;;;;;;;33.13;3.33;;;3.50;99.90;;;4.27;100.00;99461.56;4970465;28;20474;-80
2022/11/26 06:59:23;;;;;;;6.17;2.33;;;3.50;99.90;;;4.27;100.00;99459.75;4955415;28;20565;-79
2022/11/26 07:01:52;;;;;;;3.87;2.70;;;3.50;99.90;;;4.24;100.00;99470.34;4974988;28;20506;-80
2022/11/26 07:04:23;;;;;;;13.73;3.03;;;3.50;99.90;;;4.24;100.00;99474.69;4971845;28;20486;-80
2022/11/26 07:06:52;;;;;;;9.30;2.97;;;3.40;99.90;;;4.20;100.00;99476.69;4973274;28;20469;-80
2022/11/26 07:09:22;;;;;;;7.73;3.30;;;3.40;99.90;;;4.16;100.00;99482.22;4972292;28;20551;-80
2022/11/26 07:11:52;;;;;;;15.93;3.03;;;3.30;99.90;;;4.18;100.00;99485.50;4973500;28;20899;-80
2022/11/26 07:14:22;;;;;;;17.97;2.80;;;3.30;99.90;;;4.12;100.00;99494.56;4974806;28;20468;-80
2022/11/26 07:16:51;;;;;;;10.37;2.43;;;3.30;99.90;;;4.15;100.00;99483.97;4974307;28;20494;-80
2022/11/26 07:19:20;;;;;;;3.30;2.70;;;3.30;99.90;;;4.21;100.00;99493.03;4973971;28;20468;-79
2022/11/26 07:21:51;;;;;;;3.63;2.10;;;3.40;99.90;;;4.24;100.00;99495.41;4974921;28;20998;-79
2022/11/26 07:24:22;;;;;;;4.43;2.50;;;3.50;99.90;;;4.26;100.00;99496.13;4975525;28;20467;-80
2022/11/26 07:26:53;;;;;;;2.30;2.10;;;3.50;99.90;;;4.26;100.00;99501.31;4972441;28;20481;-81
2022/11/26 07:29:22;;;;;;;3.50;2.40;;;3.50;99.90;;;4.20;100.00;99499.97;4969911;28;20481;-80
2022/11/26 07:31:50;;;;;;;6.13;2.50;;;3.40;99.90;;;4.21;100.00;99500.81;4975502;28;21019;-80
2022/11/26 07:34:20;;;;;;;26.00;3.57;;;3.30;99.90;;;4.20;100.00;99507.75;4974842;28;20556;-80
2022/11/26 07:36:51;;;;;;;22.53;3.20;;;3.30;99.90;;;4.21;100.00;99524.09;4979820;28;20485;-80
2022/11/26 07:39:26;;;;;;;29.83;3.20;;;3.30;99.90;;;4.21;100.00;99519.75;4976107;28;21030;-81
2022/11/26 07:41:55;;;;;;;33.57;3.77;;;3.40;99.90;;;4.23;100.00;99522.25;4969758;28;20462;-79
2022/11/26 07:44:25;;;;;;;36.70;3.70;;;3.40;99.90;;;4.24;100.00;99522.13;4979913;28;20478;-79
2022/11/26 07:46:55;;;;;;;17.47;3.17;;;3.50;99.90;;;4.26;100.00;99530.63;4971715;28;20468;-79
2022/11/26 07:49:25;;;;;;;8.07;2.50;;;3.50;99.90;;;4.24;100.00;99532.47;4976406;28;20468;-79
2022/11/26 07:51:55;;;;;;;14.43;3.13;;;3.50;99.90;;;4.23;100.00;99536.03;4977179;28;20462;-79
2022/11/26 07:54:26;;;;;;;33.63;3.07;;;3.50;99.90;;;4.24;100.00;99540.25;4976198;28;20546;-79
2022/11/26 07:56:55;;;;;;;14.33;2.87;;;3.50;99.90;;;4.23;100.00;99538.63;4976142;28;20647;-79
2022/11/26 07:59:24;;;;;;;4.73;3.67;;;3.50;99.90;;;4.21;100.00;99540.47;4976878;28;20850;-79
2022/11/26 08:01:54;;;;;;;28.97;4.47;;;3.50;99.90;;;4.21;100.00;99547.41;4974125;28;20507;-79
2022/11/26 08:04:24;;;;;;;10.30;3.67;;;3.50;99.90;;;4.23;100.00;99548.97;4974852;28;20910;-79
2022/11/26 08:06:56;;;;;;;5.83;3.23;;;3.50;99.90;;;4.26;100.00;99548.75;4968676;28;20562;-80
2022/11/26 08:10:21;;;;;;;11.60;3.63;;;3.50;99.90;;;4.29;100.00;99548.53;4969711;28;21163;-79
2022/11/26 08:12:50;;;;;;;5.23;3.40;;;3.60;99.90;;;4.32;100.00;99545.72;4973328;28;20548;-79
2022/11/26 08:15:21;;;;;;;5.53;3.13;;;3.60;99.90;;;4.37;100.00;99555.75;4974077;28;20502;-80
2022/11/26 08:17:54;;;;;;;5.07;2.97;;;3.60;99.90;;;4.44;100.00;99554.38;4978282;28;20512;-80
2022/11/26 08:20:26;;;;;;;4.60;2.97;;;3.70;99.90;;;4.46;100.00;99555.91;4976591;28;20470;-79
2022/11/26 08:22:58;;;;;;;9.30;3.50;;;3.70;99.90;;;4.48;100.00;99561.78;4965674;28;20562;-79
2022/11/26 08:25:27;;;;;;;5.50;3.27;;;3.80;99.90;;;4.51;100.00;99561.56;4972958;28;21085;-80
2022/11/26 08:27:56;;;;;;;7.20;3.27;;;3.80;99.90;;;4.54;100.00;99563.13;4972700;28;20476;-79
2022/11/26 08:30:26;;;;;;;6.53;3.70;;;3.90;99.90;;;4.59;100.00;99566.19;4972117;28;21246;-80
2022/11/26 08:32:56;;;;;;;10.10;4.30;;;3.90;99.90;;;4.63;100.00;99556.41;4975223;28;20990;-79
2022/11/26 08:35:26;;;;;;;6.77;4.27;;;3.90;99.90;;;4.66;100.00;99553.59;4974304;28;20597;-80
2022/11/26 08:38:17;;;;;;;5.60;4.00;;;3.90;99.90;;;4.70;100.00;99557.63;4975132;28;20461;-80
2022/11/26 08:40:46;;;;;;;6.90;3.90;;;4.00;99.90;;;4.73;100.00;99562.56;4977641;28;20471;-80
2022/11/26 08:43:16;;;;;;;4.00;3.53;;;4.00;99.90;;;4.75;100.00;99561.56;4975356;28;20460;-80
2022/11/26 08:45:53;;;;;;;5.27;3.37;;;4.00;99.90;;;4.79;100.00;99569.94;4972155;28;20579;-80
2022/11/26 08:48:24;;;;;;;6.50;4.10;;;4.10;99.90;;;4.83;100.00;99566.16;4974532;28;20990;-80
2022/11/26 08:51:00;;;;;;;4.93;4.17;;;4.10;99.90;;;4.89;100.00;99570.91;4973137;28;20467;-80
2022/11/26 08:53:33;;;;;;;8.40;3.70;;;4.20;99.90;;;4.93;100.00;99569.69;4973671;28;20529;-80
2022/11/26 08:56:06;;;;;;;6.03;4.27;;;4.20;99.90;;;4.98;100.00;99575.38;4975706;28;20600;-81
2022/11/26 08:58:39;;;;;;;7.13;4.07;;;4.30;99.90;;;5.04;100.00;99574.94;4974638;28;20548;-80
2022/11/26 09:01:10;;;;;;;5.80;3.80;;;4.40;99.90;;;5.08;100.00;99571.16;4976021;28;20473;-81
2022/11/26 09:03:40;;;;;;;6.70;3.87;;;4.40;99.90;;;5.12;100.00;99564.81;4970532;28;22039;-80
2022/11/26 09:06:10;;;;;;;12.40;4.07;;;4.40;99.90;;;5.15;100.00;99564.59;4971381;28;20533;-80
2022/11/26 09:09:11;;;;;;;5.30;3.93;;;4.50;99.90;;;5.17;100.00;99565.31;4972378;28;20833;-81
2022/11/26 09:11:37;;;;;;;10.50;4.20;;;4.60;99.90;;;5.21;100.00;99558.09;4968909;28;20500;-80
2022/11/26 09:14:07;;;;;;;5.67;3.77;;;4.60;99.90;;;5.25;100.00;99555.16;4972381;28;20474;-80
2022/11/26 09:16:36;;;;;;;6.10;3.93;;;4.60;99.90;;;5.30;100.00;99563.44;4970377;28;20591;-80
2022/11/26 09:19:07;;;;;;;5.77;3.87;;;4.60;99.90;;;5.33;100.00;99562.38;4971293;28;20456;-80
2022/11/26 09:21:37;;;;;;;3.50;3.20;;;4.70;99.90;;;5.39;100.00;99561.91;4973723;28;20492;-80
2022/11/26 09:24:09;;;;;;;6.43;4.00;;;4.80;99.90;;;5.44;100.00;99570.16;4969230;28;20461;-80
2022/11/26 09:26:38;;;;;;;6.00;3.43;;;4.80;99.90;;;5.46;100.00;99574.28;4970619;28;20567;-80
2022/11/26 09:29:10;;;;;;;6.20;3.60;;;4.80;99.90;;;5.52;100.00;99563.44;4970395;28;20468;-80
2022/11/26 09:31:39;;;;;;;6.17;3.80;;;4.90;99.90;;;5.57;100.00;99566.50;4972084;28;20902;-80
2022/11/26 09:34:28;;;;;;;9.40;4.30;;;5.00;99.90;;;5.64;100.00;99566.88;4970889;28;20481;-80
2022/11/26 09:36:58;;;;;;;5.40;3.43;;;5.10;99.90;;;5.68;100.00;99567.47;4969023;28;20591;-80
2022/11/26 09:39:29;;;;;;;5.10;3.63;;;5.10;99.90;;;5.72;100.00;99568.88;4970586;28;20467;-80
2022/11/26 09:42:07;;;;;;;8.17;3.80;;;5.10;99.90;;;5.75;100.00;99571.22;4971950;28;20491;-80
2022/11/26 09:45:02;;;;;;;13.13;4.03;;;5.20;99.90;;;5.80;100.00;99569.91;4972686;28;20472;-80
2022/11/26 09:47:40;;;;;;;10.10;4.07;;;5.20;99.90;;;5.85;100.00;99575.59;4973733;28;20464;-80
2022/11/26 09:50:26;;;;;;;9.50;4.37;;;5.30;99.90;;;5.89;100.00;99574.44;4970646;28;20503;-81
2022/11/26 09:53:04;;;;;;;7.30;5.03;;;5.40;99.90;;;5.95;100.00;99578.31;4974150;28;20544;-80
2022/11/26 09:55:39;;;;;;;4.90;3.10;;;5.40;99.90;;;5.99;100.00;99582.31;4972036;28;20501;-80
2022/11/26 09:58:19;;;;;;;8.63;3.90;;;5.40;99.90;;;6.04;100.00;99580.19;4974220;28;20966;-80
2022/11/26 10:00:59;;;;;;;10.43;3.53;;;5.50;99.90;;;6.10;100.00;99576.28;4974982;28;20473;-80
2022/11/26 10:03:35;;;;;;;7.80;3.50;;;5.60;99.90;;;6.15;100.00;99572.38;4975301;28;20497;-80
2022/11/26 10:06:09;;;;;;;8.53;3.93;;;5.70;99.90;;;6.19;100.00;99576.38;4974536;28;21437;-79
2022/11/26 10:09:25;;;;;;;10.43;2.30;;;5.70;99.90;;;6.25;100.00;99572.50;4972516;28;20463;-80
2022/11/26 10:12:09;;;;;;;4.27;2.80;;;5.70;99.90;;;6.28;100.00;99570.44;4970932;28;20468;-80
2022/11/26 10:15:07;;;;;;;4.23;2.80;;;5.80;99.90;;;6.34;100.00;99572.59;4974811;28;20468;-80
2022/11/26 10:17:55;;;;;;;3.40;2.30;;;5.80;99.90;;;6.38;100.00;99565.38;4969567;28;21200;-78
2022/11/26 10:21:04;;;;;;;3.77;2.63;;;5.90;99.90;;;6.44;100.00;99568.28;4969196;28;20879;-80
2022/11/26 10:23:40;;;;;;;4.10;1.87;;;6.00;99.90;;;6.49;100.00;99568.72;4972200;28;20464;-80
2022/11/26 10:26:23;;;;;;;4.43;2.40;;;6.00;99.90;;;6.51;100.00;99563.44;4970769;28;20840;-80
2022/11/26 10:29:19;;;;;;;9.03;3.37;;;6.10;99.90;;;6.51;100.00;99564.25;4968512;28;20478;-81
2022/11/26 10:31:52;;;;;;;4.70;2.33;;;6.00;99.90;;;6.52;100.00;99571.13;4968310;28;20476;-80
2022/11/26 10:34:36;;;;;;;4.77;2.10;;;6.00;99.90;;;6.57;100.00;99558.56;4973155;28;20469;-80
2022/11/26 10:37:08;;;;;;;7.43;2.33;;;6.00;99.90;;;6.63;100.00;99553.81;4970315;28;20507;-80
2022/11/26 10:39:37;;;;;;;3.83;1.73;;;6.10;99.90;;;6.68;100.00;99543.84;4975476;28;20480;-80
2022/11/26 10:42:16;;;;;;;5.87;2.30;;;6.20;99.90;;;6.69;100.00;99548.94;4972197;28;20503;-80
2022/11/26 10:44:48;;;;;;;5.17;2.03;;;6.20;99.90;;;6.74;100.00;99545.94;4976194;28;20514;-80
2022/11/26 10:47:26;;;;;;;6.27;2.63;;;6.20;99.90;;;6.76;100.00;99549.25;4979097;28;20988;-80
2022/11/26 10:50:12;;;;;;;3.50;1.53;;;6.20;99.90;;;6.75;100.00;99547.59;4978910;28;20492;-81